Time;durP1;ratioP1;P1;durP2;ratioP2;P2;SDS_P1;SDS_P2;PMS_P1;PMS_P2;Temp;Humidity;BMP_temperature;BMP_pressure;BME280_temperature;BME280_humidity;BME280_pressure;Samples;Min_cycle;Max_cycle;Signal;HPM_P1;HPM_P2
2024/03/02 00:02:16;;;;;;;0.20;0.20;;;;;;;9.28;86.59;100977.53;4933131;29;20167;-89
2024/03/02 00:04:44;;;;;;;0.20;0.20;;;;;;;9.25;86.17;100975.06;4916929;29;20114;-89
2024/03/02 00:07:10;;;;;;;0.20;0.20;;;;;;;9.23;86.05;100982.00;4932492;29;20039;-90
2024/03/02 00:09:36;;;;;;;0.20;0.20;;;;;;;9.17;86.06;100988.25;4917076;29;20153;-90
2024/03/02 00:12:02;;;;;;;0.20;0.20;;;;;;;9.19;85.78;100994.19;4932973;29;20023;-90
2024/03/02 00:14:30;;;;;;;0.20;0.20;;;;;;;9.19;86.10;100986.44;4917132;29;20034;-90
2024/03/02 00:16:56;;;;;;;0.20;0.20;;;;;;;9.23;85.67;100992.31;4916938;29;20414;-90
2024/03/02 00:19:22;;;;;;;0.20;0.20;;;;;;;9.28;85.25;100982.69;4932924;29;20031;-90
2024/03/02 00:21:47;;;;;;;0.20;0.20;;;;;;;9.09;85.41;100967.88;4932932;29;20031;-90
2024/03/02 00:24:20;;;;;;;0.20;0.20;;;;;;;9.17;86.04;100983.94;4936476;29;20031;-89
2024/03/02 00:26:46;;;;;;;0.20;0.20;;;;;;;9.07;86.56;100976.59;4936584;29;20027;-91
2024/03/02 00:29:13;;;;;;;0.20;0.20;;;;;;;9.16;86.00;100971.91;4936254;29;20055;-90
2024/03/02 00:31:39;;;;;;;0.20;0.20;;;;;;;9.08;86.94;100976.53;4936286;29;20091;-91
2024/03/02 00:34:05;;;;;;;0.20;0.20;;;;;;;9.04;86.52;100951.72;4936317;29;20537;-90
2024/03/02 00:36:30;;;;;;;0.20;0.20;;;;;;;9.10;86.07;100956.66;4936135;29;20036;-90
2024/03/02 00:38:56;;;;;;;0.20;0.20;;;;;;;9.06;86.35;100964.59;4936277;29;20102;-91
2024/03/02 00:41:25;;;;;;;0.20;0.20;;;;;;;9.06;86.60;100962.00;4936582;29;20031;-89
2024/03/02 00:43:54;;;;;;;0.20;0.20;;;;;;;9.13;85.72;100966.00;4951568;29;20027;-89
2024/03/02 00:46:19;;;;;;;0.20;0.20;;;;;;;9.14;85.79;100975.44;4937097;29;20036;-89
2024/03/02 00:48:54;;;;;;;0.20;0.20;;;;;;;9.10;85.85;100968.72;4919953;29;20470;-88
2024/03/02 00:51:20;;;;;;;0.20;0.20;;;;;;;9.13;85.86;100963.44;4951229;29;20062;-89
2024/03/02 00:53:45;;;;;;;0.20;0.20;;;;;;;9.19;85.69;100970.97;4919947;29;20035;-89
2024/03/02 00:56:11;;;;;;;0.20;0.20;;;;;;;9.17;85.41;100960.69;4935855;29;20027;-90
2024/03/02 00:58:37;;;;;;;0.20;0.20;;;;;;;9.17;84.84;100957.28;4951720;29;20063;-88
2024/03/02 01:01:03;;;;;;;0.20;0.20;;;;;;;9.15;85.41;100959.09;4935732;29;20044;-89
2024/03/02 01:03:29;;;;;;;0.20;0.20;;;;;;;9.08;85.52;100975.69;4935553;29;20545;-89
2024/03/02 01:05:54;;;;;;;0.20;0.20;;;;;;;9.04;85.56;100966.34;4935210;29;20043;-89
2024/03/02 01:08:20;;;;;;;0.20;0.20;;;;;;;9.11;85.41;100975.56;4935287;29;20032;-91
2024/03/02 01:10:45;;;;;;;0.20;0.20;;;;;;;9.05;85.90;100975.81;4919815;29;20035;-90
2024/03/02 01:13:11;;;;;;;0.20;0.20;;;;;;;8.97;86.51;100965.75;4935474;29;20027;-89
2024/03/02 01:15:36;;;;;;;0.20;0.20;;;;;;;8.97;86.63;100968.34;4935486;29;20474;-89
2024/03/02 01:18:02;;;;;;;0.20;0.20;;;;;;;8.67;86.77;100936.75;4935087;29;20046;-88
2024/03/02 01:20:28;;;;;;;0.20;0.20;;;;;;;8.81;86.73;100957.72;4935322;29;20031;-89
2024/03/02 01:22:54;;;;;;;0.20;0.20;;;;;;;8.85;87.06;100967.06;4935426;29;20162;-88
2024/03/02 01:25:19;;;;;;;0.20;0.20;;;;;;;8.86;86.98;100960.16;4935526;29;20066;-90
2024/03/02 01:27:45;;;;;;;0.20;0.20;;;;;;;8.85;87.11;100961.91;4935579;29;20027;-89
2024/03/02 01:30:11;;;;;;;0.20;0.20;;;;;;;8.78;87.44;100965.59;4950986;29;20056;-90
2024/03/02 01:32:38;;;;;;;0.10;0.10;;;;;;;8.81;87.15;100965.47;4934477;29;20035;-90
2024/03/02 01:35:04;;;;;;;0.20;0.20;;;;;;;8.86;87.39;100970.47;4935114;29;20024;-90
2024/03/02 01:37:30;;;;;;;0.20;0.20;;;;;;;8.88;87.22;100959.19;4934919;29;20042;-89
2024/03/02 01:39:55;;;;;;;0.20;0.20;;;;;;;8.83;87.41;100957.66;4935045;29;20031;-90
2024/03/02 01:42:22;;;;;;;0.20;0.20;;;;;;;8.85;87.64;100961.91;4935010;29;20031;-88
2024/03/02 01:44:47;;;;;;;0.20;0.20;;;;;;;8.93;87.65;100963.34;4934931;29;20031;-89
2024/03/02 01:47:13;;;;;;;0.20;0.20;;;;;;;8.90;87.85;100965.13;4918851;29;20038;-89
2024/03/02 01:49:40;;;;;;;0.20;0.20;;;;;;;8.99;88.11;100963.13;4934903;29;20111;-90
2024/03/02 01:52:06;;;;;;;0.20;0.20;;;;;;;9.00;87.76;100957.06;4934653;29;20067;-89
2024/03/02 01:54:32;;;;;;;0.20;0.20;;;;;;;8.94;88.07;100952.13;4934765;29;20027;-89
2024/03/02 01:56:58;;;;;;;0.20;0.20;;;;;;;9.05;88.39;100957.75;4934709;29;20216;-89
2024/03/02 01:59:24;;;;;;;0.20;0.20;;;;;;;9.07;87.73;100966.25;4934681;29;20039;-88
2024/03/02 02:01:49;;;;;;;0.20;0.20;;;;;;;9.09;87.42;100969.63;4934397;29;20031;-90
2024/03/02 02:04:15;;;;;;;0.20;0.20;;;;;;;9.01;87.69;100957.00;4934635;29;20032;-89
2024/03/02 02:06:40;;;;;;;0.20;0.20;;;;;;;9.07;87.75;100961.94;4934595;29;20065;-88
2024/03/02 02:09:08;;;;;;;0.20;0.20;;;;;;;9.11;87.60;100968.66;4934536;29;20051;-90
2024/03/02 02:11:34;;;;;;;0.20;0.20;;;;;;;8.97;87.46;100944.28;4934200;29;20043;-90
2024/03/02 02:13:59;;;;;;;0.20;0.20;;;;;;;9.17;87.17;100965.03;4934208;29;20048;-90
2024/03/02 02:16:25;;;;;;;0.20;0.20;;;;;;;9.16;87.58;100963.34;4933627;29;20066;-90
2024/03/02 02:18:51;;;;;;;0.20;0.20;;;;;;;9.16;87.33;100963.34;4950076;29;20088;-91
2024/03/02 02:21:16;;;;;;;0.20;0.20;;;;;;;9.12;87.46;100952.28;4934076;29;20038;-89
2024/03/02 02:23:46;;;;;;;0.20;0.20;;;;;;;9.20;87.38;100964.91;4934286;29;20035;-89
2024/03/02 02:26:12;;;;;;;0.20;0.20;;;;;;;9.17;87.51;100960.69;4934135;29;20126;-89
2024/03/02 02:28:37;;;;;;;0.20;0.20;;;;;;;9.11;87.47;100949.75;4933509;29;20092;-90
2024/03/02 02:31:03;;;;;;;0.20;0.20;;;;;;;9.14;87.86;100959.94;4933598;29;20026;-91
2024/03/02 02:33:29;;;;;;;0.20;0.20;;;;;;;9.15;87.42;100949.59;4933857;29;20024;-88
2024/03/02 02:35:54;;;;;;;0.20;0.20;;;;;;;9.13;87.55;100950.53;4934020;29;20042;-89
2024/03/02 02:38:20;;;;;;;0.20;0.20;;;;;;;9.01;87.77;100925.19;4934088;29;20031;-89
2024/03/02 02:40:46;;;;;;;0.20;0.20;;;;;;;9.18;87.01;100953.78;4933917;29;20067;-89
2024/03/02 02:43:11;;;;;;;0.20;0.20;;;;;;;9.16;86.95;100946.13;4933896;29;20063;-90
2024/03/02 02:45:37;;;;;;;0.20;0.20;;;;;;;9.05;87.16;100957.75;4932690;29;20110;-90
2024/03/02 02:48:03;;;;;;;0.20;0.20;;;;;;;9.04;87.63;100956.03;4933784;29;20039;-90
2024/03/02 02:50:28;;;;;;;0.20;0.20;;;;;;;9.07;87.23;100958.53;4933639;29;20086;-89
2024/03/02 02:52:54;;;;;;;0.20;0.20;;;;;;;8.97;87.35;100949.44;4933445;29;20494;-88
2024/03/02 02:55:19;;;;;;;0.20;0.20;;;;;;;9.02;87.04;100952.66;4933550;29;20039;-90
2024/03/02 02:57:46;;;;;;;0.20;0.20;;;;;;;9.01;87.12;100957.00;4936675;29;20450;-90
2024/03/02 03:00:17;;;;;;;0.20;0.20;;;;;;;8.85;87.26;100940.41;4921000;29;20027;-90
2024/03/02 03:02:43;;;;;;;0.20;0.20;;;;;;;8.80;87.87;100948.31;4937095;29;20417;-89
2024/03/02 03:05:09;;;;;;;0.20;0.20;;;;;;;8.81;87.75;100944.81;4936609;29;20062;-91
2024/03/02 03:07:36;;;;;;;0.20;0.20;;;;;;;8.82;87.91;100946.50;4952694;29;20036;-89
2024/03/02 03:10:03;;;;;;;0.20;0.20;;;;;;;8.78;87.61;100941.53;4952635;29;20023;-90
2024/03/02 03:12:28;;;;;;;0.20;0.20;;;;;;;8.82;87.84;100943.94;4920550;29;20038;-89
2024/03/02 03:14:54;;;;;;;0.20;0.20;;;;;;;8.83;87.79;100937.03;4936201;29;20457;-89
2024/03/02 03:17:21;;;;;;;0.20;0.20;;;;;;;8.78;88.58;100955.28;4936785;29;20027;-90
2024/03/02 03:19:46;;;;;;;0.20;0.20;;;;;;;8.78;88.08;100944.94;4936532;29;20110;-89
2024/03/02 03:22:13;;;;;;;0.20;0.20;;;;;;;8.80;88.34;100948.31;4936438;29;20115;-88
2024/03/02 03:24:38;;;;;;;0.20;0.20;;;;;;;8.67;88.24;100926.44;4952301;29;20054;-88
2024/03/02 03:27:04;;;;;;;0.20;0.20;;;;;;;8.76;88.38;100935.59;4968327;28;20035;-90
2024/03/02 03:29:30;;;;;;;0.20;0.20;;;;;;;8.81;87.61;100938.81;4935931;29;20051;-90
2024/03/02 03:31:55;;;;;;;0.20;0.20;;;;;;;8.73;87.86;100933.94;4936043;29;20473;-90
2024/03/02 03:34:21;;;;;;;0.20;0.20;;;;;;;8.78;87.63;100942.38;4952382;29;20476;-89
2024/03/02 03:36:46;;;;;;;0.20;0.20;;;;;;;8.62;87.41;100898.22;4920352;29;20036;-89
2024/03/02 03:39:12;;;;;;;0.20;0.20;;;;;;;8.75;87.51;100934.75;4936190;29;20027;-90
2024/03/02 03:41:37;;;;;;;0.20;0.20;;;;;;;8.81;87.46;100938.81;4936190;29;20043;-89
2024/03/02 03:44:03;;;;;;;0.20;0.20;;;;;;;8.74;88.25;100940.78;4920052;29;20034;-91
2024/03/02 03:46:29;;;;;;;0.20;0.20;;;;;;;8.73;88.09;100930.53;4936266;29;20031;-90
2024/03/02 03:48:55;;;;;;;0.20;0.20;;;;;;;8.68;88.26;100937.59;4936152;29;20039;-90
2024/03/02 03:51:22;;;;;;;0.20;0.20;;;;;;;8.61;88.16;100927.50;4936267;29;20027;-90
2024/03/02 03:53:48;;;;;;;0.20;0.20;;;;;;;8.70;88.10;100936.66;4952051;29;20064;-88
2024/03/02 03:56:14;;;;;;;0.20;0.20;;;;;;;8.70;87.65;100939.22;4953227;28;20595;-90
2024/03/02 03:58:39;;;;;;;0.20;0.20;;;;;;;8.70;88.27;100941.81;4939562;29;20046;-89
2024/03/02 04:01:05;;;;;;;0.20;0.20;;;;;;;8.56;88.46;100933.72;4939723;29;20031;-89
2024/03/02 04:03:30;;;;;;;0.20;0.20;;;;;;;8.63;88.36;100941.16;4940030;29;20034;-90
2024/03/02 04:05:56;;;;;;;0.20;0.20;;;;;;;8.52;88.48;100932.97;4939711;29;20031;-90
2024/03/02 04:08:21;;;;;;;0.20;0.20;;;;;;;8.50;88.75;100946.81;4955833;29;20166;-90
2024/03/02 04:10:47;;;;;;;0.20;0.20;;;;;;;8.55;88.70;100952.66;4939512;29;20500;-88
2024/03/02 04:13:12;;;;;;;0.20;0.20;;;;;;;8.48;88.86;100946.03;4923434;29;20027;-90
2024/03/02 04:15:38;;;;;;;0.20;0.20;;;;;;;8.40;89.00;100942.88;4939750;29;20070;-90
2024/03/02 04:18:04;;;;;;;0.20;0.20;;;;;;;8.40;88.91;100955.78;4955564;29;20454;-89
2024/03/02 04:20:30;;;;;;;0.20;0.20;;;;;;;8.41;89.60;100960.03;4955414;29;20109;-89
2024/03/02 04:22:55;;;;;;;0.20;0.20;;;;;;;8.29;89.33;100949.22;4939760;29;20063;-89
2024/03/02 04:25:21;;;;;;;0.20;0.20;;;;;;;8.30;90.01;100962.94;4955277;28;20035;-89
2024/03/02 04:27:47;;;;;;;0.20;0.20;;;;;;;8.31;90.28;100955.16;4939153;29;20134;-89
2024/03/02 04:30:12;;;;;;;0.20;0.20;;;;;;;8.42;90.70;100961.72;4939463;29;20516;-90
2024/03/02 04:32:38;;;;;;;0.20;0.20;;;;;;;8.49;90.25;100965.78;4939330;29;20089;-90
2024/03/02 04:35:05;;;;;;;0.20;0.20;;;;;;;8.50;90.04;100968.28;4923608;29;20243;-89
2024/03/02 04:37:33;;;;;;;0.20;0.20;;;;;;;8.54;89.54;100972.44;4923733;29;20033;-90
2024/03/02 04:39:59;;;;;;;0.20;0.20;;;;;;;8.50;89.78;100970.03;4939060;29;20409;-90
2024/03/02 04:42:24;;;;;;;0.20;0.20;;;;;;;8.52;89.96;100973.41;4938904;29;20031;-89
2024/03/02 04:44:50;;;;;;;0.20;0.20;;;;;;;8.41;89.96;100971.19;4939314;29;20031;-90
2024/03/02 04:47:16;;;;;;;0.20;0.20;;;;;;;8.37;90.42;100979.09;4939232;29;20035;-89
2024/03/02 04:49:41;;;;;;;0.20;0.20;;;;;;;8.47;89.61;100977.88;4955247;29;20409;-89
2024/03/02 04:52:07;;;;;;;0.20;0.20;;;;;;;8.36;89.96;100973.09;4938612;29;20425;-89
2024/03/02 04:54:32;;;;;;;0.20;0.20;;;;;;;8.41;90.21;100985.81;4939053;29;20034;-88
2024/03/02 04:56:58;;;;;;;0.20;0.20;;;;;;;8.40;90.28;100987.56;4938798;29;20034;-89
2024/03/02 04:59:23;;;;;;;0.20;0.20;;;;;;;8.44;89.65;100981.38;4939122;29;20033;-89
2024/03/02 05:01:49;;;;;;;0.20;0.20;;;;;;;8.45;89.45;100982.22;4938842;29;20063;-89
2024/03/02 05:04:14;;;;;;;0.20;0.20;;;;;;;8.45;89.40;100982.22;4954737;29;20031;-89
2024/03/02 05:06:40;;;;;;;0.20;0.20;;;;;;;8.46;89.26;100981.38;4954742;29;20482;-90
2024/03/02 05:09:09;;;;;;;0.20;0.20;;;;;;;8.51;89.10;100987.19;4938131;29;20485;-89
2024/03/02 05:14:04;;;;;;;0.20;0.20;;;;;;;8.47;88.76;100988.19;4938949;29;20102;-89
2024/03/02 05:16:35;;;;;;;0.20;0.20;;;;;;;8.43;88.99;100995.19;4938411;29;20435;-90
2024/03/02 05:19:00;;;;;;;0.20;0.20;;;;;;;8.38;89.27;100975.63;4938864;29;20066;-89
2024/03/02 05:21:26;;;;;;;0.20;0.20;;;;;;;8.38;89.56;100988.50;4954655;29;20039;-90
2024/03/02 05:23:51;;;;;;;0.20;0.20;;;;;;;8.41;88.96;100985.81;4922855;29;20035;-89
2024/03/02 05:26:17;;;;;;;0.20;0.20;;;;;;;8.37;88.74;100989.41;4953926;29;20035;-89
2024/03/02 05:28:43;;;;;;;0.20;0.20;;;;;;;8.34;89.27;100995.44;4938220;29;20047;-88
2024/03/02 05:31:11;;;;;;;0.20;0.20;;;;;;;8.40;89.83;101002.19;4922355;29;20039;-90
2024/03/02 05:33:40;;;;;;;0.20;0.20;;;;;;;8.31;90.06;101000.72;4938084;29;20035;-89
2024/03/02 05:36:06;;;;;;;0.20;0.20;;;;;;;8.32;90.22;101008.41;4938552;29;20023;-90
2024/03/02 05:38:32;;;;;;;0.20;0.20;;;;;;;8.29;90.10;100998.19;4938120;29;20032;-89
2024/03/02 05:40:58;;;;;;;0.20;0.20;;;;;;;8.32;90.43;101008.41;4937911;29;20482;-91
2024/03/02 05:43:23;;;;;;;0.20;0.20;;;;;;;8.30;90.34;100997.31;4922467;29;20058;-89
2024/03/02 05:45:49;;;;;;;0.20;0.20;;;;;;;8.22;90.55;100988.97;4922083;29;20055;-88
2024/03/02 05:48:14;;;;;;;0.20;0.20;;;;;;;8.32;90.24;101008.41;4953832;29;20421;-90
2024/03/02 05:50:40;;;;;;;0.20;0.20;;;;;;;8.31;90.72;101004.13;4922114;29;20039;-90
2024/03/02 05:53:05;;;;;;;0.20;0.20;;;;;;;8.32;90.65;101013.56;4922077;29;20102;-90
2024/03/02 05:55:31;;;;;;;0.20;0.20;;;;;;;8.28;90.70;101017.16;4937618;29;20038;-90
2024/03/02 06:00:31;;;;;;;0.20;0.20;;;;;;;8.30;90.68;101014.50;4938987;29;20122;-89
2024/03/02 06:02:57;;;;;;;0.20;0.20;;;;;;;8.33;90.66;101015.25;4937760;29;20118;-90
2024/03/02 06:05:22;;;;;;;0.20;0.20;;;;;;;8.40;90.25;101017.66;4953793;29;20034;-90
2024/03/02 06:07:48;;;;;;;0.20;0.20;;;;;;;8.32;90.51;101005.81;4922053;29;20474;-89
2024/03/02 06:10:14;;;;;;;0.20;0.20;;;;;;;8.40;90.09;101010.75;4937608;29;20027;-89
2024/03/02 06:12:39;;;;;;;0.20;0.20;;;;;;;8.36;90.23;101013.47;4953451;29;20049;-88
2024/03/02 06:15:05;;;;;;;0.20;0.20;;;;;;;8.40;90.40;101015.06;4954569;28;20058;-88
2024/03/02 06:17:31;;;;;;;0.20;0.20;;;;;;;8.39;90.39;101014.25;4937433;29;20089;-90
2024/03/02 06:19:56;;;;;;;0.20;0.20;;;;;;;8.37;90.65;101015.19;4937587;29;20154;-90
2024/03/02 06:22:24;;;;;;;0.20;0.20;;;;;;;8.48;90.14;101023.41;4937195;29;20482;-89
2024/03/02 06:24:50;;;;;;;0.20;0.20;;;;;;;8.51;89.65;101018.13;4937480;29;20039;-90
2024/03/02 06:27:16;;;;;;;0.20;0.20;;;;;;;8.48;90.02;101018.25;4937376;29;20042;-88
2024/03/02 06:29:41;;;;;;;0.20;0.20;;;;;;;8.49;90.14;101015.59;4921483;29;20090;-90
2024/03/02 06:32:07;;;;;;;0.20;0.20;;;;;;;8.57;89.44;101023.94;4921389;29;20051;-89
2024/03/02 06:34:33;;;;;;;0.20;0.20;;;;;;;8.54;89.26;101015.44;4937306;29;20027;-89
2024/03/02 06:36:58;;;;;;;0.20;0.20;;;;;;;8.49;89.89;101027.66;4953346;29;20396;-89
2024/03/02 06:39:24;;;;;;;0.20;0.20;;;;;;;8.44;89.75;101016.66;4937051;29;20486;-90
2024/03/02 06:41:49;;;;;;;0.20;0.20;;;;;;;8.50;89.80;101031.91;4952797;29;20492;-90
2024/03/02 06:44:15;;;;;;;0.20;0.20;;;;;;;8.57;89.79;101038.56;4937154;29;20154;-88
2024/03/02 06:46:40;;;;;;;0.20;0.20;;;;;;;8.52;89.41;101033.53;4953116;29;20063;-89
2024/03/02 06:49:06;;;;;;;0.20;0.20;;;;;;;8.50;89.80;101034.50;4921278;29;20035;-91
2024/03/02 06:51:33;;;;;;;0.20;0.20;;;;;;;8.42;90.31;101044.22;4936773;29;20031;-87
2024/03/02 06:53:59;;;;;;;0.20;0.20;;;;;;;8.44;90.64;101042.44;4921386;29;20138;-89
2024/03/02 06:56:24;;;;;;;0.20;0.20;;;;;;;8.44;90.96;101042.44;4936764;29;20130;-90
2024/03/02 06:58:50;;;;;;;0.20;0.20;;;;;;;8.50;90.26;101053.38;4936875;29;20031;-89
2024/03/02 07:01:15;;;;;;;0.20;0.20;;;;;;;8.50;90.20;101049.97;4937074;29;20156;-89
2024/03/02 07:03:41;;;;;;;0.20;0.20;;;;;;;8.57;89.64;101054.03;4936680;29;20055;-89
2024/03/02 07:06:06;;;;;;;0.20;0.20;;;;;;;8.56;89.69;101042.03;4920733;29;20043;-88
2024/03/02 07:08:32;;;;;;;0.20;0.20;;;;;;;8.65;89.83;101062.31;4920889;29;20038;-89
2024/03/02 07:10:57;;;;;;;0.20;0.20;;;;;;;8.61;89.56;101051.28;4936743;29;20031;-90
2024/03/02 07:13:23;;;;;;;0.20;0.20;;;;;;;8.61;89.71;101060.75;4936713;29;20111;-89
2024/03/02 07:18:20;;;;;;;0.20;0.20;;;;;;;8.31;90.29;101029.91;4937455;29;20031;-89
2024/03/02 07:20:45;;;;;;;0.20;0.20;;;;;;;8.54;90.17;101070.44;4936382;29;20501;-89
2024/03/02 07:23:11;;;;;;;0.20;0.20;;;;;;;8.53;90.89;101061.00;4952229;29;20514;-90
2024/03/02 07:25:36;;;;;;;0.20;0.20;;;;;;;8.57;90.35;101054.03;4936327;29;20493;-89
2024/03/02 07:28:02;;;;;;;0.20;0.20;;;;;;;8.61;89.96;101068.50;4936426;29;20383;-89
2024/03/02 07:30:28;;;;;;;0.20;0.20;;;;;;;8.61;90.08;101069.34;4920369;29;20024;-89
2024/03/02 07:32:53;;;;;;;0.20;0.20;;;;;;;8.61;90.25;101071.06;4952255;29;20035;-89
2024/03/02 07:35:19;;;;;;;0.20;0.20;;;;;;;8.66;89.53;101074.34;4936163;29;20035;-90
2024/03/02 07:37:45;;;;;;;0.20;0.20;;;;;;;8.72;89.83;101068.13;4935996;29;20031;-90
2024/03/02 07:40:11;;;;;;;0.20;0.20;;;;;;;8.72;89.71;101083.63;4936061;29;20032;-89
2024/03/02 07:42:40;;;;;;;0.20;0.20;;;;;;;8.63;89.75;101077.03;4936319;29;20031;-90
2024/03/02 07:45:06;;;;;;;0.20;0.20;;;;;;;8.68;90.48;101090.63;4951937;29;20114;-90
2024/03/02 07:47:33;;;;;;;0.20;0.20;;;;;;;8.76;90.32;101090.38;4952186;29;20031;-90
2024/03/02 07:49:59;;;;;;;0.20;0.20;;;;;;;8.82;89.77;101080.66;4952003;29;20054;-89
2024/03/02 07:52:24;;;;;;;0.20;0.20;;;;;;;8.84;89.76;101089.19;4935853;29;20549;-90
2024/03/02 07:54:50;;;;;;;0.20;0.20;;;;;;;8.84;89.36;101091.75;4920264;29;20082;-90
2024/03/02 07:57:16;;;;;;;0.20;0.20;;;;;;;8.87;89.36;101094.25;4936180;29;20441;-89
2024/03/02 07:59:42;;;;;;;0.20;0.20;;;;;;;8.95;89.08;101095.72;4936164;29;20031;-89
2024/03/02 08:02:08;;;;;;;0.20;0.20;;;;;;;8.90;89.15;101099.31;4951785;29;20077;-89
2024/03/02 08:04:33;;;;;;;0.20;0.20;;;;;;;8.89;88.97;101092.47;4919272;29;20050;-89
2024/03/02 08:06:59;;;;;;;0.20;0.20;;;;;;;8.93;88.94;101097.50;4919853;29;20054;-89
2024/03/02 08:09:25;;;;;;;0.20;0.20;;;;;;;8.92;88.37;101099.25;4920071;29;20024;-90
2024/03/02 08:11:51;;;;;;;0.20;0.20;;;;;;;8.86;89.28;101104.63;4951754;29;20031;-89
2024/03/02 08:14:16;;;;;;;0.20;0.20;;;;;;;8.93;89.69;101102.66;4919901;29;20042;-88
2024/03/02 08:16:42;;;;;;;0.20;0.20;;;;;;;8.87;90.17;101096.84;4919865;29;20510;-88
2024/03/02 08:19:08;;;;;;;0.20;0.20;;;;;;;8.95;89.79;101104.31;4935377;29;20514;-88
2024/03/02 08:21:35;;;;;;;0.20;0.20;;;;;;;8.84;89.71;101094.34;4936048;29;20520;-89
2024/03/02 08:24:01;;;;;;;0.20;0.20;;;;;;;8.84;90.00;101088.34;4920118;29;20434;-90
2024/03/02 08:26:29;;;;;;;0.20;0.20;;;;;;;8.97;89.45;101105.09;4935585;29;20102;-88
2024/03/02 08:28:55;;;;;;;0.20;0.20;;;;;;;8.99;88.66;101098.16;4920381;29;20051;-89
2024/03/02 08:31:21;;;;;;;0.20;0.20;;;;;;;8.96;88.62;101102.59;4935834;29;20027;-91
2024/03/02 08:33:46;;;;;;;0.20;0.20;;;;;;;8.99;89.12;101089.56;4919597;29;20039;-91
2024/03/02 08:36:12;;;;;;;0.20;0.20;;;;;;;9.04;88.81;101103.97;4951606;29;20027;-90
2024/03/02 08:38:38;;;;;;;0.20;0.20;;;;;;;9.07;89.02;101106.47;4951549;29;20051;-91
2024/03/02 08:41:03;;;;;;;0.20;0.20;;;;;;;9.08;89.15;101102.16;4920085;29;20031;-92
2024/03/02 08:43:29;;;;;;;0.20;0.20;;;;;;;9.12;88.53;101101.97;4921189;29;20408;-92
2024/03/02 08:45:54;;;;;;;0.20;0.20;;;;;;;8.99;87.64;101092.16;4955053;29;20071;-91
2024/03/02 08:48:20;;;;;;;0.20;0.20;;;;;;;9.02;88.23;101100.63;4939297;29;20027;-91
2024/03/02 08:50:46;;;;;;;0.20;0.20;;;;;;;9.10;87.92;101105.50;4955326;29;20032;-91
2024/03/02 08:53:12;;;;;;;0.20;0.20;;;;;;;9.10;88.77;101105.50;4938614;29;20074;-92
2024/03/02 08:55:37;;;;;;;0.20;0.20;;;;;;;9.02;89.27;101100.63;4922965;29;20118;-91
2024/03/02 08:58:03;;;;;;;0.20;0.20;;;;;;;9.09;88.75;101103.84;4938889;29;20035;-91
2024/03/02 09:00:28;;;;;;;0.20;0.20;;;;;;;9.14;89.12;101094.19;4922791;29;20023;-92
2024/03/02 09:02:54;;;;;;;0.20;0.20;;;;;;;9.08;88.76;101102.16;4938736;29;20485;-92
2024/03/02 09:05:19;;;;;;;0.20;0.20;;;;;;;9.06;88.73;101104.78;4922638;29;20027;-90
2024/03/02 09:07:45;;;;;;;0.20;0.20;;;;;;;9.12;89.26;101098.56;4954678;29;20038;-91
2024/03/02 09:10:11;;;;;;;0.20;0.20;;;;;;;9.18;89.48;101103.50;4954610;29;20517;-91
2024/03/02 09:12:36;;;;;;;0.20;0.20;;;;;;;9.26;89.38;101100.66;4938226;29;20490;-92
2024/03/02 09:15:06;;;;;;;0.20;0.20;;;;;;;9.20;88.78;101109.47;4922738;29;20062;-92
2024/03/02 09:17:31;;;;;;;0.20;0.20;;;;;;;9.25;89.37;101115.31;4939152;29;20070;-92
2024/03/02 09:19:57;;;;;;;0.20;0.20;;;;;;;9.22;89.28;101105.06;4938411;29;20035;-91
2024/03/02 09:22:23;;;;;;;0.20;0.20;;;;;;;9.14;89.13;101081.25;4922510;29;20027;-90
2024/03/02 09:24:48;;;;;;;0.20;0.20;;;;;;;9.40;88.46;101113.91;4954278;29;20063;-91
2024/03/02 09:27:14;;;;;;;0.20;0.20;;;;;;;9.33;88.04;101097.78;4938318;29;20117;-91
2024/03/02 09:29:39;;;;;;;0.20;0.20;;;;;;;9.33;87.75;101095.19;4938394;29;20047;-92
2024/03/02 09:32:06;;;;;;;0.20;0.20;;;;;;;9.34;87.78;101115.00;4937994;29;20031;-92
2024/03/02 09:34:31;;;;;;;0.20;0.20;;;;;;;9.22;87.74;101105.06;4938332;29;20498;-91
2024/03/02 09:36:57;;;;;;;0.20;0.20;;;;;;;9.23;88.47;101106.75;4938377;29;20070;-91
2024/03/02 09:39:23;;;;;;;0.20;0.20;;;;;;;9.31;87.64;101102.16;4938512;29;20031;-92
2024/03/02 09:41:48;;;;;;;0.20;0.20;;;;;;;9.30;88.10;101113.41;4938270;29;20035;-91
2024/03/02 09:44:14;;;;;;;0.20;0.20;;;;;;;9.20;87.78;101109.47;4922178;29;20027;-91
2024/03/02 09:46:40;;;;;;;0.20;0.20;;;;;;;9.15;88.52;101103.63;4921904;29;20577;-90
2024/03/02 09:49:05;;;;;;;0.20;0.20;;;;;;;9.27;88.17;101103.19;4938209;29;20486;-92
2024/03/02 09:51:31;;;;;;;0.20;0.20;;;;;;;9.26;88.36;101106.66;4938086;29;20035;-91
2024/03/02 09:53:57;;;;;;;0.20;0.20;;;;;;;9.28;88.76;101099.72;4921724;29;20097;-91
2024/03/02 09:56:22;;;;;;;0.20;0.20;;;;;;;9.26;88.32;101098.09;4953737;29;20595;-92
2024/03/02 09:58:48;;;;;;;0.20;0.20;;;;;;;9.27;87.35;101107.50;4937639;29;20035;-91
2024/03/02 10:01:14;;;;;;;0.20;0.20;;;;;;;9.27;87.74;101108.34;4921725;29;20117;-91
2024/03/02 10:03:40;;;;;;;0.20;0.20;;;;;;;9.28;88.34;101104.03;4937459;29;20087;-93
2024/03/02 10:06:22;;;;;;;0.20;0.20;;;;;;;9.35;88.83;101113.25;4937164;29;20478;-92
2024/03/02 10:08:50;;;;;;;0.20;0.20;;;;;;;9.32;87.99;101108.16;4921710;29;20031;-91
2024/03/02 10:11:37;;;;;;;0.20;0.20;;;;;;;9.30;87.52;101108.22;4938178;29;20031;-91
2024/03/02 10:14:10;;;;;;;0.20;0.20;;;;;;;9.18;88.50;101111.25;4953315;29;20027;-91
2024/03/02 10:16:36;;;;;;;0.20;0.20;;;;;;;9.22;88.89;101115.41;4921519;29;20034;-91
2024/03/02 10:19:21;;;;;;;0.20;0.20;;;;;;;9.30;88.94;101120.28;4937417;29;20514;-90
2024/03/02 10:21:54;;;;;;;0.20;0.20;;;;;;;9.30;88.54;101109.97;4937485;29;20023;-91
2024/03/02 10:24:20;;;;;;;0.20;0.20;;;;;;;9.28;87.94;101102.28;4922358;29;20037;-90
2024/03/02 10:26:46;;;;;;;0.20;0.20;;;;;;;9.15;87.98;101101.88;4937200;29;20035;-91
2024/03/02 10:29:12;;;;;;;0.20;0.20;;;;;;;9.10;88.03;101106.34;4936860;29;20047;-91
2024/03/02 10:31:41;;;;;;;0.20;0.20;;;;;;;9.19;88.36;101103.44;4921498;29;20410;-91
2024/03/02 10:34:10;;;;;;;0.20;0.20;;;;;;;9.15;88.32;101098.47;4921468;29;20037;-93
2024/03/02 10:36:36;;;;;;;0.20;0.20;;;;;;;9.07;89.16;101105.63;4937282;29;20026;-91
2024/03/02 10:39:05;;;;;;;0.20;0.20;;;;;;;9.15;89.13;101099.31;4921422;29;20035;-91
2024/03/02 10:41:38;;;;;;;0.20;0.20;;;;;;;9.17;88.34;101097.50;4921359;29;20031;-92
2024/03/02 10:44:07;;;;;;;0.20;0.20;;;;;;;9.22;88.86;101099.91;4936940;29;20027;-91
2024/03/02 10:46:34;;;;;;;0.20;0.20;;;;;;;9.17;88.60;101087.19;4937523;29;20050;-92
2024/03/02 10:49:01;;;;;;;0.20;0.20;;;;;;;9.21;87.80;101098.22;4921278;29;20086;-91
2024/03/02 10:51:28;;;;;;;0.20;0.20;;;;;;;9.14;87.74;101100.22;4937165;29;20038;-93
2024/03/02 10:53:54;;;;;;;0.20;0.20;;;;;;;9.18;88.34;101095.75;4921339;29;20070;-92
2024/03/02 10:56:28;;;;;;;0.20;0.20;;;;;;;9.29;88.79;101091.06;4936684;29;20059;-93
2024/03/02 10:59:09;;;;;;;0.20;0.20;;;;;;;9.25;89.55;101070.59;4936676;29;20031;-93
2024/03/02 11:01:35;;;;;;;0.20;0.20;;;;;;;9.34;89.62;101081.41;4953851;28;20045;-91
2024/03/02 11:04:02;;;;;;;0.20;0.20;;;;;;;9.22;89.00;101058.59;4936817;29;20118;-89
2024/03/02 11:06:28;;;;;;;0.20;0.20;;;;;;;9.40;88.58;101082.91;4920106;29;20106;-90
2024/03/02 11:08:58;;;;;;;0.20;0.20;;;;;;;9.41;88.39;101075.09;4936803;29;20540;-89
2024/03/02 11:11:29;;;;;;;0.20;0.20;;;;;;;9.46;88.18;101068.06;4937463;29;20031;-90
2024/03/02 11:13:54;;;;;;;0.20;0.20;;;;;;;9.48;88.32;101076.56;4936910;29;20031;-89
2024/03/02 11:16:36;;;;;;;0.20;0.20;;;;;;;9.51;87.80;101074.78;4936770;29;21062;-90
2024/03/02 11:19:06;;;;;;;0.20;0.20;;;;;;;9.48;87.46;101073.16;4921050;29;20023;-90
2024/03/02 11:21:35;;;;;;;0.20;0.20;;;;;;;9.41;88.06;101072.53;4921246;29;20034;-89
2024/03/02 11:24:27;;;;;;;0.20;0.20;;;;;;;9.37;87.83;101055.47;4936477;29;20031;-89
2024/03/02 11:26:56;;;;;;;0.20;0.20;;;;;;;9.41;87.85;101046.69;4939496;29;20485;-90
2024/03/02 11:29:38;;;;;;;0.20;0.20;;;;;;;9.57;88.32;101079.72;4936104;29;20098;-90
2024/03/02 11:32:24;;;;;;;0.20;0.20;;;;;;;9.60;87.94;101071.84;4953462;28;20034;-89
2024/03/02 11:34:50;;;;;;;0.20;0.20;;;;;;;9.60;87.21;101074.44;4951996;29;20047;-90
2024/03/02 11:37:22;;;;;;;0.20;0.20;;;;;;;9.69;87.67;101077.50;4936434;29;20028;-90
2024/03/02 11:39:51;;;;;;;0.20;0.20;;;;;;;9.69;87.93;101068.91;4936768;29;20545;-89